Nutol, Philippines
Current Conditions -  °F | °C
As of 8:00 AM on Saturday 25 Oct 2014 (Local Time) from RPMD Reporting Station
Scattered Clouds Scattered Clouds  
Wind Chill: 82°   Ceiling: Unl
Heat Index: 91°   Visibility: 2mi
Dew Point: 77°   Wind: 3mph
Humidity: 84%   Direction: NA
Pressure: 29.91"   Gusts: NA
Location:  6.19°N, 125.14°E
Report Text: RPMD 250000Z VRB03KT 3300 FEW016 SCT090 28/25 Q1013 RMK A2991
Loading
Personal Weather Stations






























Interactive Weather Map
Tropical Storm Tracking
New forecast layout! Learn more

10-Day Weather Forecast

Advertisements
Track Severe Weather on mobile